Los Corrales de Buelna, Spain
Current Conditions -  °F | °C
As of 7:30 AM on Monday 26 Jan 2015 (Local Time) from LEXJ Reporting Station
Broken Clouds Broken Clouds  
Wind Chill: 41°   Ceiling: 3900
Heat Index: 41°   Visibility: 6mi
Dew Point: 36°   Wind: 3mph
Humidity: 81%   Direction: 230°SW
Pressure: 30.5"   Gusts: NA
Location:  43.26°N, 4.07°W
Report Text: LEXJ 260630Z 23003KT 190V280 9999 BKN039 05/02 Q1033
Loading
Personal Weather Stations






























Interactive Weather Map New forecast layout! Learn more

10-Day Weather Forecast

Advertisements
Track Severe Weather on mobile